sensor_id;sensor_type;location;lat;lon;timestamp;pressure;altitude;pressure_sealevel;temperature;humidity
36502;BME280;25393;46.108;3.390;2023-03-23T00:01:23;97450.81;;;15.21;51.88
36502;BME280;25393;46.108;3.390;2023-03-23T00:03:53;97450.81;;;15.21;51.63
36502;BME280;25393;46.108;3.390;2023-03-23T00:06:20;97463.34;;;15.21;52.07
36502;BME280;25393;46.108;3.390;2023-03-23T00:08:50;97442.47;;;15.05;52.02
36502;BME280;25393;46.108;3.390;2023-03-23T00:11:23;97444.94;;;14.99;52.44
36502;BME280;25393;46.108;3.390;2023-03-23T00:13:52;97460.94;;;15.06;52.94
36502;BME280;25393;46.108;3.390;2023-03-23T00:16:23;97461.63;;;14.95;52.75
36502;BME280;25393;46.108;3.390;2023-03-23T00:18:59;97459.75;;;14.89;52.68
36502;BME280;25393;46.108;3.390;2023-03-23T00:21:29;97457.34;;;14.81;52.76
36502;BME280;25393;46.108;3.390;2023-03-23T00:24:09;97474.34;;;14.86;52.41
36502;BME280;25393;46.108;3.390;2023-03-23T00:26:38;97471.28;;;14.83;52.23
36502;BME280;25393;46.108;3.390;2023-03-23T00:29:06;97472.94;;;14.84;51.15
36502;BME280;25393;46.108;3.390;2023-03-23T00:31:33;97474.53;;;14.85;51.07
36502;BME280;25393;46.108;3.390;2023-03-23T00:34:02;97468.41;;;14.91;50.79
36502;BME280;25393;46.108;3.390;2023-03-23T00:36:33;97469.22;;;14.91;50.61
36502;BME280;25393;46.108;3.390;2023-03-23T00:39:01;97478.66;;;14.87;51.22
36502;BME280;25393;46.108;3.390;2023-03-23T00:41:28;97480.09;;;14.90;52.89
36502;BME280;25393;46.108;3.390;2023-03-23T00:43:55;97475.16;;;14.93;52.97
36502;BME280;25393;46.108;3.390;2023-03-23T00:46:22;97481.94;;;14.89;52.83
36502;BME280;25393;46.108;3.390;2023-03-23T00:48:47;97462.06;;;14.79;52.20
36502;BME280;25393;46.108;3.390;2023-03-23T00:51:13;97463.47;;;14.88;51.77
36502;BME280;25393;46.108;3.390;2023-03-23T00:53:39;97468.38;;;14.97;51.45
36502;BME280;25393;46.108;3.390;2023-03-23T00:56:06;97459.97;;;14.94;51.17
36502;BME280;25393;46.108;3.390;2023-03-23T00:58:35;97453.59;;;15.02;50.74
36502;BME280;25393;46.108;3.390;2023-03-23T01:01:01;97468.91;;;15.19;50.86
36502;BME280;25393;46.108;3.390;2023-03-23T01:03:27;97460.13;;;15.12;50.82
36502;BME280;25393;46.108;3.390;2023-03-23T01:05:53;97464.81;;;15.10;51.06
36502;BME280;25393;46.108;3.390;2023-03-23T01:08:20;97457.88;;;15.09;51.46
36502;BME280;25393;46.108;3.390;2023-03-23T01:10:47;97459.91;;;15.07;51.60
36502;BME280;25393;46.108;3.390;2023-03-23T01:13:13;97453.34;;;15.03;51.56
36502;BME280;25393;46.108;3.390;2023-03-23T01:15:40;97430.84;;;14.86;51.69
36502;BME280;25393;46.108;3.390;2023-03-23T01:18:06;97440.84;;;15.04;51.23
36502;BME280;25393;46.108;3.390;2023-03-23T01:20:32;97436.53;;;15.02;51.60
36502;BME280;25393;46.108;3.390;2023-03-23T01:22:58;97430.56;;;15.07;52.09
36502;BME280;25393;46.108;3.390;2023-03-23T01:25:30;97419.88;;;15.07;51.29
36502;BME280;25393;46.108;3.390;2023-03-23T01:27:57;97401.84;;;15.02;50.89
36502;BME280;25393;46.108;3.390;2023-03-23T01:30:23;97415.09;;;15.22;50.27
36502;BME280;25393;46.108;3.390;2023-03-23T01:32:49;97408.78;;;15.10;50.37
36502;BME280;25393;46.108;3.390;2023-03-23T01:35:15;97413.13;;;15.05;50.67
36502;BME280;25393;46.108;3.390;2023-03-23T01:37:40;97407.84;;;14.85;52.07
36502;BME280;25393;46.108;3.390;2023-03-23T01:40:06;97421.00;;;14.86;53.02
36502;BME280;25393;46.108;3.390;2023-03-23T01:42:34;97426.13;;;14.81;54.37
36502;BME280;25393;46.108;3.390;2023-03-23T01:45:31;97433.75;;;14.71;54.60
36502;BME280;25393;46.108;3.390;2023-03-23T01:50:49;97413.47;;;14.57;54.28
36502;BME280;25393;46.108;3.390;2023-03-23T01:53:17;97411.00;;;14.62;53.08
36502;BME280;25393;46.108;3.390;2023-03-23T01:55:44;97417.16;;;14.69;52.72
36502;BME280;25393;46.108;3.390;2023-03-23T01:58:14;97406.94;;;14.60;52.61
36502;BME280;25393;46.108;3.390;2023-03-23T02:00:40;97402.38;;;14.60;52.48
36502;BME280;25393;46.108;3.390;2023-03-23T02:03:08;97392.94;;;14.64;52.76
36502;BME280;25393;46.108;3.390;2023-03-23T02:05:38;97403.81;;;14.69;52.88
36502;BME280;25393;46.108;3.390;2023-03-23T02:08:06;97403.63;;;14.58;53.86
36502;BME280;25393;46.108;3.390;2023-03-23T02:10:35;97402.63;;;14.52;54.83
36502;BME280;25393;46.108;3.390;2023-03-23T02:13:03;97397.72;;;14.36;55.31
36502;BME280;25393;46.108;3.390;2023-03-23T02:18:50;97388.09;;;14.35;55.04
36502;BME280;25393;46.108;3.390;2023-03-23T02:26:57;97384.41;;;14.36;54.72
36502;BME280;25393;46.108;3.390;2023-03-23T02:32:46;97388.50;;;14.38;56.26
36502;BME280;25393;46.108;3.390;2023-03-23T02:35:28;97395.25;;;14.28;56.67
36502;BME280;25393;46.108;3.390;2023-03-23T02:38:05;97390.97;;;14.20;56.94
36502;BME280;25393;46.108;3.390;2023-03-23T02:40:41;97375.81;;;14.14;57.15
36502;BME280;25393;46.108;3.390;2023-03-23T02:43:11;97369.03;;;14.05;57.35
36502;BME280;25393;46.108;3.390;2023-03-23T02:45:44;97379.09;;;14.10;56.43
36502;BME280;25393;46.108;3.390;2023-03-23T02:48:12;97381.94;;;14.21;55.77
36502;BME280;25393;46.108;3.390;2023-03-23T02:50:44;97384.78;;;14.26;55.87
36502;BME280;25393;46.108;3.390;2023-03-23T02:53:13;97365.56;;;14.18;56.01
36502;BME280;25393;46.108;3.390;2023-03-23T02:55:43;97367.56;;;14.29;55.68
36502;BME280;25393;46.108;3.390;2023-03-23T02:58:12;97378.44;;;14.47;55.31
36502;BME280;25393;46.108;3.390;2023-03-23T03:00:38;97369.03;;;14.38;55.74
36502;BME280;25393;46.108;3.390;2023-03-23T03:03:05;97373.31;;;14.52;56.47
36502;BME280;25393;46.108;3.390;2023-03-23T03:05:40;97375.78;;;14.40;56.98
36502;BME280;25393;46.108;3.390;2023-03-23T03:08:30;97379.06;;;14.36;57.79
36502;BME280;25393;46.108;3.390;2023-03-23T03:11:11;97365.53;;;14.24;57.55
36502;BME280;25393;46.108;3.390;2023-03-23T03:13:46;97357.13;;;14.34;57.61
36502;BME280;25393;46.108;3.390;2023-03-23T03:21:46;97356.53;;;14.38;56.48
36502;BME280;25393;46.108;3.390;2023-03-23T03:24:14;97350.09;;;14.59;55.12
36502;BME280;25393;46.108;3.390;2023-03-23T03:26:43;97338.25;;;14.42;55.65
36502;BME280;25393;46.108;3.390;2023-03-23T03:29:19;97334.13;;;14.33;56.63
36502;BME280;25393;46.108;3.390;2023-03-23T03:31:47;97350.78;;;14.41;55.71
36502;BME280;25393;46.108;3.390;2023-03-23T03:34:15;97352.63;;;14.34;56.55
36502;BME280;25393;46.108;3.390;2023-03-23T03:36:43;97352.19;;;14.31;58.76
36502;BME280;25393;46.108;3.390;2023-03-23T03:39:12;97353.44;;;14.22;59.28
36502;BME280;25393;46.108;3.390;2023-03-23T03:41:38;97342.38;;;14.12;58.89
36502;BME280;25393;46.108;3.390;2023-03-23T03:44:04;97343.19;;;14.12;59.60
36502;BME280;25393;46.108;3.390;2023-03-23T03:46:30;97351.19;;;14.12;59.81
36502;BME280;25393;46.108;3.390;2023-03-23T03:48:57;97339.94;;;13.97;59.34
36502;BME280;25393;46.108;3.390;2023-03-23T03:51:23;97346.31;;;13.96;59.47
36502;BME280;25393;46.108;3.390;2023-03-23T03:53:49;97335.66;;;13.96;60.06
36502;BME280;25393;46.108;3.390;2023-03-23T03:56:15;97350.63;;;14.04;60.18
36502;BME280;25393;46.108;3.390;2023-03-23T03:58:41;97356.13;;;14.02;60.66
36502;BME280;25393;46.108;3.390;2023-03-23T04:01:09;97352.25;;;13.98;61.36
36502;BME280;25393;46.108;3.390;2023-03-23T04:03:36;97370.69;;;13.99;60.58
36502;BME280;25393;46.108;3.390;2023-03-23T04:06:02;97315.78;;;13.72;60.67
36502;BME280;25393;46.108;3.390;2023-03-23T04:08:27;97366.41;;;13.85;60.92
36502;BME280;25393;46.108;3.390;2023-03-23T04:10:53;97354.28;;;13.76;60.24
36502;BME280;25393;46.108;3.390;2023-03-23T04:13:19;97364.94;;;13.83;60.69
36502;BME280;25393;46.108;3.390;2023-03-23T04:15:45;97365.34;;;13.73;61.63
36502;BME280;25393;46.108;3.390;2023-03-23T04:18:12;97356.75;;;13.58;61.69
36502;BME280;25393;46.108;3.390;2023-03-23T04:20:38;97381.75;;;13.64;61.16
36502;BME280;25393;46.108;3.390;2023-03-23T04:23:03;97379.50;;;13.54;61.39
36502;BME280;25393;46.108;3.390;2023-03-23T04:25:29;97387.47;;;13.54;61.21
36502;BME280;25393;46.108;3.390;2023-03-23T04:27:58;97383.78;;;13.55;61.26
36502;BME280;25393;46.108;3.390;2023-03-23T04:30:27;97383.59;;;13.57;61.36
36502;BME280;25393;46.108;3.390;2023-03-23T04:32:54;97388.31;;;13.61;61.11
36502;BME280;25393;46.108;3.390;2023-03-23T04:35:22;97392.00;;;13.60;60.45
36502;BME280;25393;46.108;3.390;2023-03-23T04:37:48;97393.81;;;13.60;60.50
36502;BME280;25393;46.108;3.390;2023-03-23T04:40:17;97384.00;;;13.60;60.76
36502;BME280;25393;46.108;3.390;2023-03-23T04:42:46;97377.25;;;13.64;60.45
36502;BME280;25393;46.108;3.390;2023-03-23T04:45:18;97386.25;;;13.63;61.56
36502;BME280;25393;46.108;3.390;2023-03-23T04:47:50;97394.44;;;13.55;62.08
36502;BME280;25393;46.108;3.390;2023-03-23T04:50:24;97402.41;;;13.48;62.67
36502;BME280;25393;46.108;3.390;2023-03-23T04:52:51;97411.63;;;13.52;63.31
36502;BME280;25393;46.108;3.390;2023-03-23T04:55:19;97387.44;;;13.34;63.75
36502;BME280;25393;46.108;3.390;2023-03-23T04:57:48;97411.41;;;13.41;64.01
36502;BME280;25393;46.108;3.390;2023-03-23T05:00:14;97408.72;;;13.41;64.11
36502;BME280;25393;46.108;3.390;2023-03-23T05:02:44;97405.28;;;13.40;64.15
36502;BME280;25393;46.108;3.390;2023-03-23T05:05:17;97413.63;;;13.31;64.35
36502;BME280;25393;46.108;3.390;2023-03-23T05:07:44;97402.97;;;13.31;63.49
36502;BME280;25393;46.108;3.390;2023-03-23T05:10:11;97392.56;;;13.36;62.49
36502;BME280;25393;46.108;3.390;2023-03-23T05:12:37;97395.22;;;13.42;62.80
36502;BME280;25393;46.108;3.390;2023-03-23T05:15:03;97400.75;;;13.47;62.53
36502;BME280;25393;46.108;3.390;2023-03-23T05:17:29;97398.06;;;13.28;62.79
36502;BME280;25393;46.108;3.390;2023-03-23T05:19:56;97387.84;;;13.31;63.53
36502;BME280;25393;46.108;3.390;2023-03-23T05:22:22;97391.94;;;13.34;63.09
36502;BME280;25393;46.108;3.390;2023-03-23T05:24:48;97397.25;;;13.27;62.87
36502;BME280;25393;46.108;3.390;2023-03-23T05:27:20;97396.63;;;13.25;63.56
36502;BME280;25393;46.108;3.390;2023-03-23T05:29:46;97384.78;;;13.34;62.19
36502;BME280;25393;46.108;3.390;2023-03-23T05:32:19;97392.59;;;13.56;61.04
36502;BME280;25393;46.108;3.390;2023-03-23T05:34:45;97380.91;;;13.37;61.69
36502;BME280;25393;46.108;3.390;2023-03-23T05:37:12;97386.03;;;13.45;63.37
36502;BME280;25393;46.108;3.390;2023-03-23T05:39:39;97379.50;;;13.67;63.25
36502;BME280;25393;46.108;3.390;2023-03-23T05:42:05;97388.09;;;13.49;63.75
36502;BME280;25393;46.108;3.390;2023-03-23T05:44:31;97412.03;;;13.36;64.80
36502;BME280;25393;46.108;3.390;2023-03-23T05:46:57;97396.00;;;13.23;65.86
36502;BME280;25393;46.108;3.390;2023-03-23T05:49:22;97396.81;;;13.24;66.39
36502;BME280;25393;46.108;3.390;2023-03-23T05:51:49;97399.28;;;13.19;66.69
36502;BME280;25393;46.108;3.390;2023-03-23T05:54:15;97397.06;;;13.35;63.94
36502;BME280;25393;46.108;3.390;2023-03-23T05:56:41;97397.88;;;13.29;63.84
36502;BME280;25393;46.108;3.390;2023-03-23T05:59:06;97394.78;;;13.26;64.81
36502;BME280;25393;46.108;3.390;2023-03-23T06:01:32;97397.88;;;13.36;64.63
36502;BME280;25393;46.108;3.390;2023-03-23T06:03:58;97406.88;;;13.35;64.53
36502;BME280;25393;46.108;3.390;2023-03-23T06:06:28;97413.63;;;13.31;64.35
36502;BME280;25393;46.108;3.390;2023-03-23T06:08:58;97436.16;;;13.28;64.80
36502;BME280;25393;46.108;3.390;2023-03-23T06:11:24;97441.63;;;13.14;65.05
36502;BME280;25393;46.108;3.390;2023-03-23T06:13:50;97435.97;;;13.30;65.06
36502;BME280;25393;46.108;3.390;2023-03-23T06:16:15;97422.88;;;13.41;65.96
36502;BME280;25393;46.108;3.390;2023-03-23T06:18:41;97404.44;;;13.40;66.32
36502;BME280;25393;46.108;3.390;2023-03-23T06:21:08;97416.94;;;13.46;65.06
36502;BME280;25393;46.108;3.390;2023-03-23T06:23:34;97421.84;;;13.36;64.64
36502;BME280;25393;46.108;3.390;2023-03-23T06:26:03;97432.28;;;13.37;66.15
36502;BME280;25393;46.108;3.390;2023-03-23T06:28:30;97414.88;;;13.35;67.14
36502;BME280;25393;46.108;3.390;2023-03-23T06:30:59;97418.94;;;13.31;67.15
36502;BME280;25393;46.108;3.390;2023-03-23T06:33:24;97408.97;;;13.59;68.31
36502;BME280;25393;46.108;3.390;2023-03-23T06:35:50;97399.75;;;13.55;65.35
36502;BME280;25393;46.108;3.390;2023-03-23T06:38:16;97418.78;;;13.45;65.81
36502;BME280;25393;46.108;3.390;2023-03-23T06:40:42;97416.28;;;13.31;66.52
36502;BME280;25393;46.108;3.390;2023-03-23T06:43:11;97421.84;;;13.36;67.22
36502;BME280;25393;46.108;3.390;2023-03-23T06:45:36;97423.44;;;13.30;68.08
36502;BME280;25393;46.108;3.390;2023-03-23T06:48:02;97427.16;;;13.36;67.37
36502;BME280;25393;46.108;3.390;2023-03-23T06:50:27;97442.31;;;13.35;67.82
36502;BME280;25393;46.108;3.390;2023-03-23T06:52:53;97456.22;;;13.37;67.74
36502;BME280;25393;46.108;3.390;2023-03-23T06:55:27;97457.06;;;13.38;68.69
36502;BME280;25393;46.108;3.390;2023-03-23T06:57:59;97458.28;;;13.42;69.84
36502;BME280;25393;46.108;3.390;2023-03-23T07:00:26;97458.94;;;13.50;68.11
36502;BME280;25393;46.108;3.390;2023-03-23T07:02:52;97465.72;;;13.60;68.08
36502;BME280;25393;46.108;3.390;2023-03-23T07:05:29;97460.38;;;13.60;66.12
36502;BME280;25393;46.108;3.390;2023-03-23T07:07:55;97454.88;;;13.61;65.25
36502;BME280;25393;46.108;3.390;2023-03-23T07:10:21;97473.72;;;13.66;65.50
36502;BME280;25393;46.108;3.390;2023-03-23T07:12:46;97482.28;;;13.62;68.12
36502;BME280;25393;46.108;3.390;2023-03-23T07:15:12;97487.84;;;13.60;69.95
36502;BME280;25393;46.108;3.390;2023-03-23T07:17:38;97484.19;;;13.68;71.09
36502;BME280;25393;46.108;3.390;2023-03-23T07:20:06;97472.28;;;13.70;71.83
36502;BME280;25393;46.108;3.390;2023-03-23T07:22:32;97463.47;;;13.70;73.69
36502;BME280;25393;46.108;3.390;2023-03-23T07:24:57;97458.56;;;13.67;75.31
36502;BME280;25393;46.108;3.390;2023-03-23T07:27:23;97478.88;;;13.81;76.04
36502;BME280;25393;46.108;3.390;2023-03-23T07:29:52;97473.94;;;13.78;76.65
36502;BME280;25393;46.108;3.390;2023-03-23T07:32:17;97480.28;;;13.77;77.20
36502;BME280;25393;46.108;3.390;2023-03-23T07:34:42;97487.25;;;13.65;77.58
36502;BME280;25393;46.108;3.390;2023-03-23T07:37:09;97482.69;;;13.52;76.56
36502;BME280;25393;46.108;3.390;2023-03-23T07:39:34;97484.75;;;13.57;74.02
36502;BME280;25393;46.108;3.390;2023-03-23T07:42:00;97476.97;;;13.62;72.48
36502;BME280;25393;46.108;3.390;2023-03-23T07:44:26;97475.72;;;13.51;73.60
36502;BME280;25393;46.108;3.390;2023-03-23T07:46:51;97475.72;;;13.51;75.10
36502;BME280;25393;46.108;3.390;2023-03-23T07:49:18;97478.44;;;13.71;76.51
36502;BME280;25393;46.108;3.390;2023-03-23T07:51:45;97486.03;;;13.74;76.11
36502;BME280;25393;46.108;3.390;2023-03-23T07:54:12;97493.34;;;13.59;77.59
36502;BME280;25393;46.108;3.390;2023-03-23T07:56:38;97483.53;;;13.59;77.44
36502;BME280;25393;46.108;3.390;2023-03-23T07:59:07;97479.03;;;13.66;79.39
36502;BME280;25393;46.108;3.390;2023-03-23T08:01:33;97469.44;;;13.72;77.45
36502;BME280;25393;46.108;3.390;2023-03-23T08:03:59;97464.31;;;13.77;76.04
36502;BME280;25393;46.108;3.390;2023-03-23T08:06:26;97469.66;;;13.90;76.27
36502;BME280;25393;46.108;3.390;2023-03-23T08:08:52;97467.84;;;14.04;76.56
36502;BME280;25393;46.108;3.390;2023-03-23T08:11:19;97471.75;;;14.14;75.44
36502;BME280;25393;46.108;3.390;2023-03-23T08:13:46;97469.28;;;14.13;75.95
36502;BME280;25393;46.108;3.390;2023-03-23T08:16:12;97480.94;;;14.18;77.73
36502;BME280;25393;46.108;3.390;2023-03-23T08:18:38;97470.28;;;14.18;77.99
36502;BME280;25393;46.108;3.390;2023-03-23T08:21:05;97460.66;;;14.17;78.67
36502;BME280;25393;46.108;3.390;2023-03-23T08:23:31;97469.47;;;14.31;75.68
36502;BME280;25393;46.108;3.390;2023-03-23T08:25:58;97458.25;;;14.35;76.10
36502;BME280;25393;46.108;3.390;2023-03-23T08:28:24;97442.25;;;14.35;74.86
36502;BME280;25393;46.108;3.390;2023-03-23T08:30:49;97450.44;;;14.40;73.59
36502;BME280;25393;46.108;3.390;2023-03-23T08:33:16;97448.38;;;14.56;73.06
36502;BME280;25393;46.108;3.390;2023-03-23T08:35:41;97442.56;;;14.78;69.46
36502;BME280;25393;46.108;3.390;2023-03-23T08:38:10;97459.75;;;15.02;67.76
36502;BME280;25393;46.108;3.390;2023-03-23T08:40:37;97456.91;;;14.90;67.16
36502;BME280;25393;46.108;3.390;2023-03-23T08:43:02;97469.44;;;14.83;67.98
36502;BME280;25393;46.108;3.390;2023-03-23T08:45:28;97466.97;;;14.82;69.05
36502;BME280;25393;46.108;3.390;2023-03-23T08:47:53;97480.47;;;15.00;68.03
36502;BME280;25393;46.108;3.390;2023-03-23T08:50:23;97490.16;;;14.94;67.62
36502;BME280;25393;46.108;3.390;2023-03-23T08:52:49;97503.44;;;15.08;69.44
36502;BME280;25393;46.108;3.390;2023-03-23T08:55:16;97491.34;;;15.05;68.84
36502;BME280;25393;46.108;3.390;2023-03-23T08:57:44;97500.75;;;15.14;67.85
36502;BME280;25393;46.108;3.390;2023-03-23T09:00:13;97511.78;;;15.24;65.98
36502;BME280;25393;46.108;3.390;2023-03-23T09:02:51;97506.47;;;15.24;66.65
36502;BME280;25393;46.108;3.390;2023-03-23T09:05:23;97502.34;;;15.28;64.29
36502;BME280;25393;46.108;3.390;2023-03-23T09:07:51;97508.84;;;15.45;62.84
36502;BME280;25393;46.108;3.390;2023-03-23T09:10:18;97510.25;;;15.61;62.75
36502;BME280;25393;46.108;3.390;2023-03-23T09:12:45;97508.50;;;15.80;62.39
36502;BME280;25393;46.108;3.390;2023-03-23T09:15:14;97512.09;;;15.98;59.92
36502;BME280;25393;46.108;3.390;2023-03-23T09:17:42;97500.78;;;16.28;59.70
36502;BME280;25393;46.108;3.390;2023-03-23T09:20:09;97486.72;;;16.64;59.13
36502;BME280;25393;46.108;3.390;2023-03-23T09:22:43;97493.03;;;17.30;57.56
36502;BME280;25393;46.108;3.390;2023-03-23T09:25:11;97490.94;;;18.63;54.80
36502;BME280;25393;46.108;3.390;2023-03-23T09:27:38;97483.63;;;19.45;51.25
36502;BME280;25393;46.108;3.390;2023-03-23T09:30:07;97480.59;;;19.41;49.38
36502;BME280;25393;46.108;3.390;2023-03-23T09:32:34;97479.97;;;19.51;50.27
36502;BME280;25393;46.108;3.390;2023-03-23T09:35:05;97485.66;;;19.66;50.17
36502;BME280;25393;46.108;3.390;2023-03-23T09:37:33;97486.13;;;19.91;48.11
36502;BME280;25393;46.108;3.390;2023-03-23T09:40:04;97477.50;;;19.89;47.84
36502;BME280;25393;46.108;3.390;2023-03-23T09:51:00;97490.53;;;19.41;48.70
36502;BME280;25393;46.108;3.390;2023-03-23T09:53:38;97486.59;;;19.60;47.21
36502;BME280;25393;46.108;3.390;2023-03-23T09:56:10;97486.91;;;19.75;46.43
36502;BME280;25393;46.108;3.390;2023-03-23T09:58:46;97489.09;;;20.23;47.14
36502;BME280;25393;46.108;3.390;2023-03-23T10:01:26;97480.88;;;20.58;44.08
36502;BME280;25393;46.108;3.390;2023-03-23T10:04:07;97498.38;;;20.61;44.69
36502;BME280;25393;46.108;3.390;2023-03-23T10:06:35;97488.41;;;20.44;44.82
36502;BME280;25393;46.108;3.390;2023-03-23T10:09:03;97488.31;;;20.23;46.05
36502;BME280;25393;46.108;3.390;2023-03-23T10:16:59;97484.88;;;20.11;45.09
36502;BME280;25393;46.108;3.390;2023-03-23T10:19:31;97490.09;;;20.17;45.07
36502;BME280;25393;46.108;3.390;2023-03-23T10:22:05;97490.94;;;20.34;45.44
36502;BME280;25393;46.108;3.390;2023-03-23T10:24:38;97501.66;;;20.29;45.26
36502;BME280;25393;46.108;3.390;2023-03-23T10:27:23;97493.34;;;20.48;45.03
36502;BME280;25393;46.108;3.390;2023-03-23T10:30:11;97491.06;;;20.39;44.37
36502;BME280;25393;46.108;3.390;2023-03-23T10:32:43;97498.53;;;20.37;44.76
36502;BME280;25393;46.108;3.390;2023-03-23T10:35:18;97490.72;;;20.08;45.29
36502;BME280;25393;46.108;3.390;2023-03-23T10:37:59;97491.72;;;20.18;45.94
36502;BME280;25393;46.108;3.390;2023-03-23T10:40:29;97496.19;;;20.13;45.89
36502;BME280;25393;46.108;3.390;2023-03-23T10:42:56;97495.84;;;20.09;46.66
36502;BME280;25393;46.108;3.390;2023-03-23T10:45:30;97483.41;;;20.20;46.47
36502;BME280;25393;46.108;3.390;2023-03-23T10:48:15;97492.75;;;20.29;46.29
36502;BME280;25393;46.108;3.390;2023-03-23T10:50:46;97491.38;;;20.43;46.11
36502;BME280;25393;46.108;3.390;2023-03-23T10:53:29;97483.97;;;20.33;45.53
36502;BME280;25393;46.108;3.390;2023-03-23T10:55:57;97484.69;;;20.46;45.92
36502;BME280;25393;46.108;3.390;2023-03-23T10:58:33;97470.91;;;20.42;43.70
36502;BME280;25393;46.108;3.390;2023-03-23T11:01:00;97477.84;;;20.55;44.88
36502;BME280;25393;46.108;3.390;2023-03-23T11:06:17;97489.03;;;20.18;44.54
36502;BME280;25393;46.108;3.390;2023-03-23T11:08:52;97492.22;;;20.15;46.85
36502;BME280;25393;46.108;3.390;2023-03-23T11:11:41;97478.44;;;20.12;45.46
36502;BME280;25393;46.108;3.390;2023-03-23T11:14:32;97483.28;;;20.60;46.66
36502;BME280;25393;46.108;3.390;2023-03-23T11:17:04;97483.06;;;21.16;48.16
36502;BME280;25393;46.108;3.390;2023-03-23T11:19:36;97475.75;;;21.33;46.43
36502;BME280;25393;46.108;3.390;2023-03-23T11:22:18;97475.66;;;21.07;45.02
36502;BME280;25393;46.108;3.390;2023-03-23T11:24:47;97481.97;;;20.79;43.42
36502;BME280;25393;46.108;3.390;2023-03-23T11:27:19;97469.81;;;20.76;43.96
36502;BME280;25393;46.108;3.390;2023-03-23T11:29:57;97463.19;;;20.84;42.74
36502;BME280;25393;46.108;3.390;2023-03-23T11:32:28;97470.69;;;20.99;43.45
36502;BME280;25393;46.108;3.390;2023-03-23T11:34:58;97455.84;;;20.96;40.87
36502;BME280;25393;46.108;3.390;2023-03-23T11:37:45;97469.06;;;21.14;42.05
36502;BME280;25393;46.108;3.390;2023-03-23T11:40:22;97460.84;;;21.09;42.90
36502;BME280;25393;46.108;3.390;2023-03-23T11:45:35;97469.81;;;20.76;43.32
36502;BME280;25393;46.108;3.390;2023-03-23T11:50:50;97446.88;;;20.74;41.36
36502;BME280;25393;46.108;3.390;2023-03-23T11:53:32;97434.47;;;20.73;41.78
36502;BME280;25393;46.108;3.390;2023-03-23T11:56:24;97449.41;;;20.80;42.20
36502;BME280;25393;46.108;3.390;2023-03-23T11:58:52;97438.13;;;20.83;42.24
36502;BME280;25393;46.108;3.390;2023-03-23T12:10:26;97435.06;;;21.13;42.36
36502;BME280;25393;46.108;3.390;2023-03-23T12:21:18;97410.50;;;21.53;39.13
36502;BME280;25393;46.108;3.390;2023-03-23T12:26:37;97414.03;;;21.59;39.97
36502;BME280;25393;46.108;3.390;2023-03-23T12:34:26;97401.25;;;21.71;40.58
36502;BME280;25393;46.108;3.390;2023-03-23T12:48:07;97367.22;;;21.92;39.17
36502;BME280;25393;46.108;3.390;2023-03-23T12:50:44;97383.72;;;21.73;40.56
36502;BME280;25393;46.108;3.390;2023-03-23T12:59:32;97353.22;;;21.41;40.22
36502;BME280;25393;46.108;3.390;2023-03-23T13:02:33;97356.16;;;21.39;39.35
36502;BME280;25393;46.108;3.390;2023-03-23T13:05:08;97331.66;;;20.98;41.06
36502;BME280;25393;46.108;3.390;2023-03-23T13:07:44;97360.19;;;21.15;45.81
36502;BME280;25393;46.108;3.390;2023-03-23T13:10:22;97352.38;;;21.14;43.35
36502;BME280;25393;46.108;3.390;2023-03-23T13:12:53;97337.31;;;20.96;43.68
36502;BME280;25393;46.108;3.390;2023-03-23T13:15:42;97343.56;;;21.02;40.59
36502;BME280;25393;46.108;3.390;2023-03-23T13:23:35;97348.31;;;20.73;41.94
36502;BME280;25393;46.108;3.390;2023-03-23T13:26:06;97344.56;;;20.74;42.01
36502;BME280;25393;46.108;3.390;2023-03-23T13:28:45;97333.19;;;20.67;42.58
36502;BME280;25393;46.108;3.390;2023-03-23T13:31:29;97339.22;;;20.35;42.07
36502;BME280;25393;46.108;3.390;2023-03-23T13:36:59;97318.91;;;20.28;43.21
36502;BME280;25393;46.108;3.390;2023-03-23T13:39:30;97317.50;;;20.42;43.61
36502;BME280;25393;46.108;3.390;2023-03-23T13:42:19;97316.81;;;20.52;41.86
36502;BME280;25393;46.108;3.390;2023-03-23T13:47:27;97290.78;;;20.57;42.25
36502;BME280;25393;46.108;3.390;2023-03-23T14:03:17;97261.19;;;20.79;40.35
36502;BME280;25393;46.108;3.390;2023-03-23T14:10:56;97260.78;;;21.14;41.16
36502;BME280;25393;46.108;3.390;2023-03-23T14:13:31;97265.19;;;21.25;41.33
36502;BME280;25393;46.108;3.390;2023-03-23T14:16:04;97254.22;;;21.31;40.07
36502;BME280;25393;46.108;3.390;2023-03-23T14:18:36;97259.22;;;21.50;39.55
36502;BME280;25393;46.108;3.390;2023-03-23T14:21:03;97252.50;;;21.52;39.27
36502;BME280;25393;46.108;3.390;2023-03-23T14:23:32;97242.19;;;21.44;39.47
36502;BME280;25393;46.108;3.390;2023-03-23T14:26:06;97246.72;;;21.38;38.52
36502;BME280;25393;46.108;3.390;2023-03-23T14:28:40;97236.16;;;21.32;39.17
36502;BME280;25393;46.108;3.390;2023-03-23T14:31:27;97237.22;;;21.31;39.55
36502;BME280;25393;46.108;3.390;2023-03-23T14:33:56;97226.66;;;21.24;39.72
36502;BME280;25393;46.108;3.390;2023-03-23T14:36:28;97234.38;;;21.42;39.19
36502;BME280;25393;46.108;3.390;2023-03-23T14:38:58;97234.63;;;21.41;40.33
36502;BME280;25393;46.108;3.390;2023-03-23T14:41:34;97221.06;;;21.31;39.78
36502;BME280;25393;46.108;3.390;2023-03-23T14:44:02;97219.72;;;21.33;39.45
36502;BME280;25393;46.108;3.390;2023-03-23T14:46:35;97215.81;;;21.19;40.14
36502;BME280;25393;46.108;3.390;2023-03-23T14:49:03;97214.25;;;21.23;41.57
36502;BME280;25393;46.108;3.390;2023-03-23T14:51:29;97219.72;;;21.33;39.98
36502;BME280;25393;46.108;3.390;2023-03-23T14:53:58;97222.63;;;21.59;39.10
36502;BME280;25393;46.108;3.390;2023-03-23T14:56:36;97214.16;;;21.82;41.68
36502;BME280;25393;46.108;3.390;2023-03-23T14:59:06;97217.66;;;22.24;42.58
36502;BME280;25393;46.108;3.390;2023-03-23T15:01:34;97204.31;;;22.55;37.95
36502;BME280;25393;46.108;3.390;2023-03-23T15:04:04;97211.44;;;22.76;38.38
36502;BME280;25393;46.108;3.390;2023-03-23T15:06:33;97206.03;;;22.76;38.54
36502;BME280;25393;46.108;3.390;2023-03-23T15:09:04;97199.81;;;22.75;37.81